Trenton, Alabama
Current Conditions -  °F | °C
As of 10:55 PM on Monday 22 Dec 2014 (Local Time) from K4A6 Reporting Station
Overcast Overcast  
Wind Chill: 50°   Ceiling: 1400
Heat Index: 50°   Visibility: 10mi
Dew Point: 48°   Wind: 3mph
Humidity: 94%   Direction: 180°S
Pressure: 29.83"   Gusts: NA
Location:  34.74°N, 86.25°W
Report Text: K4A6 230455Z AUTO 18003KT 10SM OVC014 10/09 A2983 RMK AO2
Loading
Personal Weather Stations






























Interactive Weather Map New forecast layout! Learn more

10-Day Weather Forecast

Advertisements
Track Severe Weather on mobile